Time;durP1;ratioP1;P1;durP2;ratioP2;P2;SDS_P1;SDS_P2;PMS_P1;PMS_P2;Temp;Humidity;BMP_temperature;BMP_pressure;BME280_temperature;BME280_humidity;BME280_pressure;Samples;Min_cycle;Max_cycle;Signal;HPM_P1;HPM_P2
2023/03/17 00:02:13;;;;;;;20.35;7.65;;;13.40;83.10;;;;;;7393856;19;19999;-78
2023/03/17 00:04:42;;;;;;;;;;;13.40;83.10;;;;;;7404852;19;20003;-78
2023/03/17 00:07:16;;;;;;;17.23;7.10;;;13.40;83.30;;;;;;7394810;19;19935;-78
2023/03/17 00:09:45;;;;;;;14.05;7.07;;;13.40;83.20;;;;;;7387485;19;20035;-78
2023/03/17 00:12:14;;;;;;;20.00;8.52;;;13.40;83.00;;;;;;7410289;19;20022;-78
2023/03/17 00:14:45;;;;;;;17.15;7.97;;;13.40;83.80;;;;;;7387751;19;20031;-79
2023/03/17 00:17:19;;;;;;;17.23;7.88;;;13.40;83.00;;;;;;7388355;19;20371;-78
2023/03/17 00:19:48;;;;;;;16.23;7.82;;;13.40;83.00;;;;;;7387338;19;20014;-78
2023/03/17 00:22:21;;;;;;;19.15;8.05;;;13.30;83.00;;;;;;7388464;19;20018;-78
2023/03/17 00:24:50;;;;;;;26.98;8.38;;;13.40;83.10;;;;;;7385970;19;20054;-78
2023/03/17 00:27:19;;;;;;;23.30;9.73;;;13.30;83.30;;;;;;7406836;19;20010;-78
2023/03/17 00:29:48;;;;;;;18.83;9.07;;;13.20;83.50;;;;;;7386263;19;20010;-78
2023/03/17 00:32:22;;;;;;;17.60;8.32;;;13.20;83.70;;;;;;7386772;19;20003;-78
2023/03/17 00:34:50;;;;;;;19.50;7.97;;;13.20;83.70;;;;;;7386100;19;20015;-78
2023/03/17 00:37:19;;;;;;;15.55;7.90;;;13.20;83.80;;;;;;7386207;19;20017;-78
2023/03/17 00:39:48;;;;;;;17.20;8.65;;;13.20;83.80;;;;;;7390211;19;20015;-78
2023/03/17 00:42:17;;;;;;;21.77;8.85;;;13.20;83.90;;;;;;7411606;19;20011;-78
2023/03/17 00:44:46;;;;;;;13.70;7.05;;;13.20;83.70;;;;;;7389713;19;20214;-78
2023/03/17 00:47:15;;;;;;;12.20;6.55;;;13.20;83.60;;;;;;7390036;19;20250;-78
2023/03/17 00:49:47;;;;;;;17.45;7.18;;;13.20;83.70;;;;;;7389647;19;20014;-78
2023/03/17 00:52:15;;;;;;;17.25;8.13;;;13.20;83.80;;;;;;7390380;19;20007;-78
2023/03/17 00:54:44;;;;;;;18.73;7.60;;;13.20;83.70;;;;;;7388830;19;20230;-77
2023/03/17 00:57:13;;;;;;;22.17;7.88;;;13.20;83.80;;;;;;7405914;19;20003;-77
2023/03/17 00:59:44;;;;;;;19.80;8.27;;;13.10;84.00;;;;;;7385946;19;20007;-77
2023/03/17 01:02:13;;;;;;;20.90;7.67;;;13.10;84.10;;;;;;7387069;19;20309;-77
2023/03/17 01:04:44;;;;;;;17.30;7.75;;;13.10;83.90;;;;;;7387017;19;20038;-77
2023/03/17 01:07:15;;;;;;;15.13;6.97;;;13.10;83.70;;;;;;7383396;19;20009;-77
2023/03/17 01:09:44;;;;;;;21.75;7.85;;;13.20;83.70;;;;;;7382540;19;20011;-77
2023/03/17 01:12:15;;;;;;;20.13;8.73;;;13.10;83.80;;;;;;7405481;19;20062;-77
2023/03/17 01:14:44;;;;;;;14.30;8.13;;;13.10;84.50;;;;;;7381637;19;20010;-77
2023/03/17 01:17:17;;;;;;;15.65;7.65;;;13.10;84.00;;;;;;7383581;19;20260;-77
2023/03/17 01:19:47;;;;;;;17.00;7.45;;;13.00;83.90;;;;;;7383193;19;20007;-77
2023/03/17 01:22:19;;;;;;;14.65;7.38;;;13.10;84.00;;;;;;7386950;19;20003;-78
2023/03/17 01:24:48;;;;;;;18.70;7.85;;;13.00;84.00;;;;;;7389124;19;20245;-78
2023/03/17 01:27:17;;;;;;;15.25;7.70;;;13.00;84.00;;;;;;7405193;19;20024;-78
2023/03/17 01:29:46;;;;;;;14.73;7.30;;;13.00;84.10;;;;;;7387254;19;19998;-78
2023/03/17 01:32:15;;;;;;;18.05;7.80;;;13.00;84.40;;;;;;7392574;19;20010;-77
2023/03/17 01:34:44;;;;;;;13.60;7.45;;;13.00;84.60;;;;;;7386179;19;20010;-77
2023/03/17 01:37:13;;;;;;;21.67;7.45;;;13.00;84.30;;;;;;7383650;19;20043;-77
2023/03/17 01:39:45;;;;;;;13.77;6.60;;;12.90;84.20;;;;;;7385087;19;20007;-77
2023/03/17 01:42:14;;;;;;;15.73;7.13;;;12.80;84.40;;;;;;7404050;19;20298;-77
2023/03/17 01:44:58;;;;;;;21.45;7.95;;;12.80;84.90;;;;;;7385476;19;20357;-77
2023/03/17 01:47:30;;;;;;;19.75;7.47;;;12.80;84.90;;;;;;7384910;19;20003;-76
2023/03/17 01:50:04;;;;;;;20.33;7.22;;;12.80;84.70;;;;;;7385753;19;20258;-77
2023/03/17 01:52:33;;;;;;;13.85;5.60;;;12.80;84.70;;;;;;7383709;19;20015;-77
2023/03/17 01:55:09;;;;;;;14.13;6.20;;;12.80;84.40;;;;;;7383515;19;20006;-78
2023/03/17 01:57:41;;;;;;;15.65;6.20;;;12.80;84.60;;;;;;7386523;19;20010;-77
2023/03/17 02:00:13;;;;;;;11.93;5.90;;;12.80;84.70;;;;;;7406607;19;20660;-78
2023/03/17 02:02:44;;;;;;;13.70;6.20;;;12.80;84.70;;;;;;7387231;19;20018;-77
2023/03/17 02:05:16;;;;;;;13.63;5.90;;;12.80;84.70;;;;;;7383278;19;20006;-77
2023/03/17 02:07:46;;;;;;;12.63;5.32;;;12.80;84.50;;;;;;7382557;19;20014;-77
2023/03/17 02:10:21;;;;;;;11.38;5.68;;;12.80;84.70;;;;;;7380543;19;20014;-77
2023/03/17 02:12:54;;;;;;;14.80;5.85;;;12.80;84.70;;;;;;7384628;19;20067;-77
2023/03/17 02:15:23;;;;;;;12.10;5.82;;;12.80;84.80;;;;;;7386194;19;20015;-77
2023/03/17 02:17:53;;;;;;;17.38;6.00;;;12.80;84.90;;;;;;7411010;19;20238;-77
2023/03/17 02:20:51;;;;;;;12.27;5.97;;;12.80;85.00;;;;;;7388213;19;20007;-78
2023/03/17 02:23:25;;;;;;;14.73;6.80;;;12.70;85.30;;;;;;7388090;19;20071;-77
2023/03/17 02:25:55;;;;;;;15.55;6.90;;;12.70;85.10;;;;;;7388052;19;20062;-77
2023/03/17 02:28:30;;;;;;;16.80;6.50;;;12.70;85.00;;;;;;7388860;19;20006;-77
2023/03/17 02:30:59;;;;;;;14.35;6.90;;;12.80;85.00;;;;;;7386391;19;20026;-77
2023/03/17 02:33:28;;;;;;;15.18;6.38;;;12.80;85.00;;;;;;7385332;19;20015;-77
2023/03/17 02:35:56;;;;;;;17.05;6.07;;;12.80;85.10;;;;;;7406561;19;19999;-77
2023/03/17 02:38:28;;;;;;;11.63;6.00;;;12.70;85.30;;;;;;7387833;19;20006;-77
2023/03/17 02:40:57;;;;;;;14.70;6.10;;;12.70;85.30;;;;;;7391776;19;20015;-77
2023/03/17 02:43:26;;;;;;;15.93;6.20;;;12.70;85.30;;;;;;7392569;19;20003;-77
2023/03/17 02:45:54;;;;;;;12.15;5.70;;;12.60;85.40;;;;;;7391068;19;20007;-77
2023/03/17 02:48:23;;;;;;;14.48;6.18;;;12.60;85.40;;;;;;7386685;19;20007;-77
2023/03/17 02:50:54;;;;;;;14.35;5.68;;;12.60;85.70;;;;;;7409218;19;20031;-77
2023/03/17 02:53:23;;;;;;;8.68;4.88;;;12.60;85.70;;;;;;7394982;19;20031;-76
2023/03/17 02:55:55;;;;;;;13.30;5.95;;;12.60;85.90;;;;;;7390935;19;20356;-77
2023/03/17 02:58:23;;;;;;;18.23;7.47;;;12.70;86.00;;;;;;7395138;19;20026;-79
2023/03/17 03:00:52;;;;;;;11.55;5.75;;;12.70;85.80;;;;;;7387467;19;20010;-77
2023/03/17 03:03:21;;;;;;;10.70;5.68;;;12.70;85.70;;;;;;7384031;19;20323;-77
2023/03/17 03:05:50;;;;;;;10.45;5.80;;;12.70;85.70;;;;;;7408632;19;20010;-77
2023/03/17 03:08:19;;;;;;;18.38;5.45;;;12.70;85.90;;;;;;7388051;19;20345;-77
2023/03/17 03:10:48;;;;;;;23.98;6.20;;;12.70;85.90;;;;;;7391845;19;20013;-79
2023/03/17 03:13:19;;;;;;;14.27;5.55;;;12.80;85.70;;;;;;7393721;19;20011;-79
2023/03/17 03:15:49;;;;;;;17.48;6.40;;;12.80;85.90;;;;;;7392048;19;20006;-79
2023/03/17 03:18:18;;;;;;;9.98;5.72;;;12.80;85.90;;;;;;7416230;19;20094;-79
2023/03/17 03:20:47;;;;;;;14.40;6.55;;;12.80;85.90;;;;;;7391631;19;20377;-79
2023/03/17 03:23:16;;;;;;;16.73;6.22;;;12.80;85.80;;;;;;7389115;19;20017;-79
2023/03/17 03:25:45;;;;;;;12.82;6.57;;;12.80;85.90;;;;;;7392795;19;20003;-78
2023/03/17 03:28:14;;;;;;;11.88;5.68;;;12.80;85.90;;;;;;7392632;19;20007;-79
2023/03/17 03:30:47;;;;;;;13.77;6.20;;;12.80;85.80;;;;;;7388397;19;20026;-79
2023/03/17 03:33:17;;;;;;;10.23;6.00;;;12.80;86.00;;;;;;7409540;19;20003;-79
2023/03/17 03:35:46;;;;;;;17.38;6.28;;;12.90;86.10;;;;;;7387210;19;20003;-78
2023/03/17 03:38:15;;;;;;;17.30;6.57;;;12.90;85.90;;;;;;7390672;19;20275;-78
2023/03/17 03:40:44;;;;;;;14.77;6.63;;;12.90;86.10;;;;;;7391505;19;20010;-79
2023/03/17 03:43:13;;;;;;;13.95;6.72;;;12.80;85.90;;;;;;7388433;19;20006;-79
2023/03/17 03:45:46;;;;;;;18.17;6.47;;;12.90;85.90;;;;;;7389070;19;20011;-79
2023/03/17 03:48:15;;;;;;;16.45;6.40;;;12.90;85.80;;;;;;7408742;19;20014;-78
2023/03/17 03:50:46;;;;;;;17.48;7.93;;;12.90;85.90;;;;;;7389680;19;20010;-78
2023/03/17 03:53:16;;;;;;;16.38;7.07;;;12.90;86.10;;;;;;7390313;19;20378;-78
2023/03/17 03:55:45;;;;;;;18.35;7.10;;;12.90;86.10;;;;;;7389491;19;20002;-78
2023/03/17 03:58:14;;;;;;;14.68;7.22;;;12.90;86.10;;;;;;7401710;19;20015;-78
2023/03/17 04:00:45;;;;;;;17.98;6.72;;;12.80;86.00;;;;;;7394150;19;20026;-77
2023/03/17 04:03:14;;;;;;;;;;;12.80;86.00;;;;;;7412051;19;20107;-78
2023/03/17 04:05:43;;;;;;;13.90;6.35;;;12.90;86.20;;;;;;7385522;19;19917;-78
2023/03/17 04:08:12;;;;;;;19.55;7.32;;;12.80;86.10;;;;;;7387195;19;20011;-77
2023/03/17 04:10:41;;;;;;;19.48;6.88;;;12.80;86.20;;;;;;7386343;19;20006;-77
2023/03/17 04:13:10;;;;;;;12.93;6.57;;;12.80;86.30;;;;;;7384636;19;20003;-78
2023/03/17 04:15:39;;;;;;;13.80;6.68;;;12.80;86.30;;;;;;7384749;19;21981;-77
2023/03/17 04:18:12;;;;;;;14.80;6.20;;;12.70;86.50;;;;;;7404485;19;20003;-78
2023/03/17 04:20:41;;;;;;;19.65;6.80;;;12.60;86.90;;;;;;7386112;19;20003;-78
2023/03/17 04:23:10;;;;;;;15.05;6.55;;;12.70;87.10;;;;;;7389840;19;20273;-78
2023/03/17 04:25:38;;;;;;;13.55;6.43;;;12.70;87.10;;;;;;7386786;19;20261;-78
2023/03/17 04:28:07;;;;;;;14.35;6.53;;;12.80;87.20;;;;;;7386694;19;20003;-78
2023/03/17 04:30:36;;;;;;;19.40;6.38;;;12.80;87.20;;;;;;7385547;19;20002;-79
2023/03/17 04:33:05;;;;;;;14.32;6.68;;;12.80;87.20;;;;;;7408029;19;20034;-78
2023/03/17 04:35:37;;;;;;;12.65;5.80;;;12.80;87.20;;;;;;7385521;19;20030;-78
2023/03/17 04:38:06;;;;;;;11.68;6.40;;;12.80;87.20;;;;;;7388733;19;20002;-78
2023/03/17 04:40:34;;;;;;;22.13;7.10;;;12.90;87.20;;;;;;7385607;19;20006;-78
2023/03/17 04:43:03;;;;;;;13.65;7.20;;;12.90;87.30;;;;;;7385280;19;19998;-78
2023/03/17 04:45:33;;;;;;;14.35;7.22;;;12.90;87.20;;;;;;7385342;19;20044;-78
2023/03/17 04:48:02;;;;;;;11.10;6.13;;;12.90;87.40;;;;;;7411340;19;20011;-78
2023/03/17 04:50:31;;;;;;;17.67;6.88;;;13.00;87.40;;;;;;7392328;19;20014;-78
2023/03/17 04:53:03;;;;;;;12.45;6.25;;;13.00;87.30;;;;;;7389112;19;20021;-79
2023/03/17 04:55:31;;;;;;;;;;;13.00;87.20;;;;;;7386811;19;20017;-78
2023/03/17 04:58:01;;;;;;;17.05;6.47;;;13.00;87.20;;;;;;7385700;19;19903;-78
2023/03/17 05:00:30;;;;;;;13.77;6.13;;;13.00;87.10;;;;;;7383513;19;20023;-77
2023/03/17 05:02:59;;;;;;;10.85;5.97;;;13.00;87.30;;;;;;7407355;19;20251;-78
2023/03/17 05:05:28;;;;;;;15.63;6.13;;;13.00;87.50;;;;;;7385604;19;20002;-78
2023/03/17 05:07:57;;;;;;;12.65;6.63;;;13.00;87.50;;;;;;7384465;19;20012;-78
2023/03/17 05:10:28;;;;;;;15.35;6.65;;;13.00;87.50;;;;;;7386181;19;20062;-78
2023/03/17 05:12:57;;;;;;;15.00;5.78;;;13.00;87.40;;;;;;7384790;19;20014;-78
2023/03/17 05:15:26;;;;;;;12.43;6.00;;;13.00;87.40;;;;;;7382982;19;20397;-78
2023/03/17 05:17:55;;;;;;;18.35;5.65;;;13.00;87.70;;;;;;7406332;19;20024;-78
2023/03/17 05:20:24;;;;;;;16.70;6.88;;;13.00;87.70;;;;;;7384829;19;20006;-78
2023/03/17 05:22:52;;;;;;;15.15;5.95;;;13.00;87.50;;;;;;7384985;19;20002;-78
2023/03/17 05:25:21;;;;;;;16.73;5.70;;;13.00;87.40;;;;;;7384617;19;20042;-78
2023/03/17 05:27:53;;;;;;;17.80;6.97;;;13.00;87.40;;;;;;7384134;19;20345;-78
2023/03/17 05:30:22;;;;;;;16.13;7.03;;;13.00;87.20;;;;;;7387731;19;20007;-77
2023/03/17 05:32:50;;;;;;;14.48;6.82;;;13.10;87.30;;;;;;7409632;19;20027;-78
2023/03/17 05:35:20;;;;;;;15.57;6.93;;;13.00;87.40;;;;;;7385415;19;20007;-78
2023/03/17 05:37:49;;;;;;;15.50;7.07;;;13.00;87.50;;;;;;7384083;19;20312;-78
2023/03/17 05:40:18;;;;;;;24.17;7.35;;;13.00;87.60;;;;;;7385574;19;20003;-78
2023/03/17 05:42:46;;;;;;;18.02;8.13;;;13.10;87.60;;;;;;7388017;19;20006;-79
2023/03/17 05:45:18;;;;;;;15.98;7.03;;;13.10;87.70;;;;;;7408048;19;20029;-77
2023/03/17 05:47:46;;;;;;;;;;;13.10;87.70;;;;;;7384383;19;20207;-77
2023/03/17 05:50:15;;;;;;;14.27;6.53;;;13.20;87.70;;;;;;7383493;19;19911;-78
2023/03/17 05:52:44;;;;;;;16.58;7.32;;;13.10;87.40;;;;;;7381651;19;20011;-78
2023/03/17 05:55:13;;;;;;;24.98;7.00;;;13.10;87.40;;;;;;7381758;19;20009;-78
2023/03/17 05:57:42;;;;;;;17.75;7.65;;;13.10;87.50;;;;;;7382464;19;20022;-77
2023/03/17 06:00:12;;;;;;;17.00;7.55;;;13.10;87.60;;;;;;7403624;19;20035;-77
2023/03/17 06:02:44;;;;;;;16.17;6.68;;;13.10;87.70;;;;;;7382042;19;20095;-78
2023/03/17 06:05:13;;;;;;;17.88;7.18;;;13.10;87.70;;;;;;7382468;19;20064;-77
2023/03/17 06:07:42;;;;;;;17.60;6.78;;;13.10;87.70;;;;;;7382862;19;20356;-78
2023/03/17 06:10:13;;;;;;;16.73;7.20;;;13.10;87.80;;;;;;7385116;19;20007;-78
2023/03/17 06:12:46;;;;;;;16.25;6.50;;;13.10;88.10;;;;;;7386270;19;20003;-78
2023/03/17 06:15:15;;;;;;;20.98;7.05;;;13.10;88.00;;;;;;7404107;19;20007;-78
2023/03/17 06:17:47;;;;;;;22.98;7.40;;;13.10;88.00;;;;;;7384512;19;20007;-78
2023/03/17 06:20:16;;;;;;;;;;;13.10;88.20;;;;;;7383628;19;20006;-78
2023/03/17 06:22:45;;;;;;;14.90;6.65;;;13.20;88.30;;;;;;7385360;19;19938;-78
2023/03/17 06:25:14;;;;;;;18.80;6.63;;;13.20;88.10;;;;;;7400136;19;20098;-78
2023/03/17 06:27:43;;;;;;;15.95;7.05;;;13.20;88.00;;;;;;7394213;19;20086;-78
2023/03/17 06:30:13;;;;;;;14.05;6.20;;;13.10;88.10;;;;;;7409783;19;20010;-77
2023/03/17 06:32:42;;;;;;;19.98;7.53;;;13.20;88.30;;;;;;7385648;19;20006;-78
2023/03/17 06:35:14;;;;;;;20.60;7.40;;;13.10;88.30;;;;;;7381445;19;20024;-78
2023/03/17 06:37:43;;;;;;;18.27;7.05;;;13.10;88.60;;;;;;7383355;19;20006;-78
2023/03/17 06:40:15;;;;;;;24.17;7.55;;;13.20;88.80;;;;;;7382240;19;20006;-78
2023/03/17 06:42:43;;;;;;;14.75;6.35;;;13.20;88.80;;;;;;7382752;19;20015;-78
2023/03/17 06:45:15;;;;;;;25.00;6.97;;;13.20;88.80;;;;;;7402795;19;20030;-78
2023/03/17 06:47:43;;;;;;;14.45;6.30;;;13.30;89.00;;;;;;7382703;19;20483;-78
2023/03/17 06:50:16;;;;;;;19.75;7.20;;;13.30;89.10;;;;;;7385214;19;19999;-77
2023/03/17 06:52:45;;;;;;;20.58;6.28;;;13.30;89.20;;;;;;7385744;19;20006;-78
2023/03/17 06:55:14;;;;;;;16.63;6.65;;;13.30;89.30;;;;;;7379991;19;20011;-78
2023/03/17 06:57:43;;;;;;;24.48;6.97;;;13.40;90.10;;;;;;7379624;19;20011;-78
2023/03/17 07:00:14;;;;;;;16.40;7.45;;;13.40;89.60;;;;;;7408846;19;20003;-78
2023/03/17 07:02:43;;;;;;;21.40;7.15;;;13.40;89.70;;;;;;7387891;19;20031;-78
2023/03/17 07:05:15;;;;;;;15.85;6.75;;;13.40;89.60;;;;;;7388260;19;20014;-78
2023/03/17 07:07:43;;;;;;;;;;;13.50;89.70;;;;;;7389232;19;20085;-78
2023/03/17 07:10:16;;;;;;;18.05;7.05;;;13.60;90.00;;;;;;7386921;19;19907;-78
2023/03/17 07:12:45;;;;;;;23.13;7.10;;;13.60;89.40;;;;;;7389628;19;20007;-78
2023/03/17 07:15:14;;;;;;;20.63;7.22;;;13.60;89.50;;;;;;7407785;19;20002;-78
2023/03/17 07:17:46;;;;;;;14.73;5.95;;;13.60;89.50;;;;;;7389263;19;20010;-78
2023/03/17 07:20:18;;;;;;;13.15;6.10;;;13.60;89.50;;;;;;7388180;19;20070;-78
2023/03/17 07:22:47;;;;;;;16.05;5.55;;;13.60;89.20;;;;;;7389053;19;20013;-78
2023/03/17 07:25:16;;;;;;;13.30;6.07;;;13.70;89.00;;;;;;7390656;19;20018;-78
2023/03/17 07:27:45;;;;;;;21.27;5.75;;;13.80;88.90;;;;;;7392095;19;20014;-78
2023/03/17 07:30:17;;;;;;;11.60;5.63;;;13.80;88.60;;;;;;7414830;19;20011;-78
2023/03/17 07:32:46;;;;;;;16.48;5.75;;;13.90;88.50;;;;;;7391811;19;20011;-78
2023/03/17 07:35:18;;;;;;;13.52;5.15;;;14.00;88.20;;;;;;7387243;19;20002;-79
2023/03/17 07:37:47;;;;;;;12.85;5.18;;;14.00;87.90;;;;;;7389685;19;20091;-79
2023/03/17 07:40:17;;;;;;;9.93;4.60;;;14.10;87.50;;;;;;7392129;19;20556;-78
2023/03/17 07:42:46;;;;;;;8.80;4.50;;;14.10;87.20;;;;;;7388306;19;20015;-77
2023/03/17 07:45:15;;;;;;;14.40;4.75;;;14.20;87.50;;;;;;7411449;19;20072;-77
2023/03/17 07:47:45;;;;;;;12.25;4.40;;;14.20;86.50;;;;;;7385194;19;20226;-78
2023/03/17 07:50:17;;;;;;;11.18;4.57;;;14.30;86.50;;;;;;7386846;19;20006;-78
2023/03/17 07:52:47;;;;;;;9.32;4.43;;;14.30;86.20;;;;;;7388361;19;20746;-79
2023/03/17 07:55:16;;;;;;;8.20;4.15;;;14.40;86.00;;;;;;7389925;19;20255;-78
2023/03/17 07:57:45;;;;;;;9.40;4.18;;;14.40;85.80;;;;;;7387521;19;20014;-79
2023/03/17 08:00:18;;;;;;;8.02;3.65;;;14.40;85.60;;;;;;7413501;19;20253;-79
2023/03/17 08:02:47;;;;;;;13.10;4.57;;;14.40;85.30;;;;;;7390643;19;20007;-78
2023/03/17 08:05:18;;;;;;;8.50;4.35;;;14.50;85.20;;;;;;7390436;19;20281;-81
2023/03/17 08:08:20;;;;;;;;;;;;;;;;;;;;;
2023/03/17 08:14:03;;;;;;;10.30;4.27;;;14.50;84.90;;;;;;7419774;19;19975;-81
2023/03/17 09:37:08;;;;;;;6.60;2.15;;;16.10;74.70;;;;;;7390072;19;20014;-77
2023/03/17 09:39:37;;;;;;;5.03;1.70;;;15.90;72.10;;;;;;7388490;19;20003;-79
2023/03/17 10:33:46;;;;;;;5.97;1.85;;;16.50;72.30;;;;;;7362887;19;20183;-79
2023/03/17 10:36:18;;;;;;;11.98;2.00;;;16.30;73.00;;;;;;7414350;19;20038;-79
2023/03/17 10:38:53;;;;;;;11.48;2.33;;;16.30;74.00;;;;;;7395824;19;20227;-81
2023/03/17 10:41:22;;;;;;;6.22;1.80;;;16.00;74.60;;;;;;7392653;19;20221;-80
2023/03/17 11:24:27;;;;;;;6.20;2.13;;;16.90;73.20;;;;;;7375276;19;20010;-81
2023/03/17 11:27:01;;;;;;;4.55;2.03;;;17.10;72.90;;;;;;7394236;19;20002;-80
2023/03/17 11:29:50;;;;;;;6.93;2.05;;;17.20;72.90;;;;;;7389949;19;20013;-80
2023/03/17 11:32:28;;;;;;;10.43;2.22;;;17.20;73.50;;;;;;7389858;19;20078;-80
2023/03/17 11:35:25;;;;;;;9.48;2.00;;;16.90;73.30;;;;;;7390386;19;20010;-82
2023/03/17 11:38:27;;;;;;;7.88;2.15;;;17.10;73.70;;;;;;7393329;19;20006;-81
2023/03/17 11:45:18;;;;;;;9.80;2.35;;;17.10;73.80;;;;;;7364437;19;20092;-81
2023/03/17 11:48:16;;;;;;;13.33;2.43;;;17.20;72.90;;;;;;7406556;19;20044;-83
2023/03/17 11:50:55;;;;;;;9.40;2.35;;;17.20;73.60;;;;;;7387555;19;20014;-82
2023/03/17 11:53:44;;;;;;;11.65;2.65;;;17.30;74.30;;;;;;7387053;19;20021;-81
2023/03/17 11:56:20;;;;;;;11.30;2.42;;;17.30;74.00;;;;;;7386826;19;20035;-81
2023/03/17 11:58:53;;;;;;;11.02;2.70;;;17.30;74.00;;;;;;7387251;19;20007;-81
2023/03/17 12:01:47;;;;;;;;;;;;;;;;;;;;;
2023/03/17 12:04:33;;;;;;;9.68;2.40;;;17.20;74.80;;;;;;7387567;19;20010;-81
2023/03/17 12:07:10;;;;;;;10.35;2.60;;;17.10;75.30;;;;;;7391157;19;20007;-81
2023/03/17 12:09:46;;;;;;;7.90;2.78;;;17.10;75.30;;;;;;7402696;19;20049;-81
2023/03/17 12:12:25;;;;;;;11.15;3.03;;;17.20;75.50;;;;;;7420480;19;20006;-80
2023/03/17 12:14:55;;;;;;;4.82;2.10;;;17.10;75.70;;;;;;7396131;19;20020;-80
2023/03/17 12:17:30;;;;;;;12.70;2.08;;;17.10;76.00;;;;;;7389709;19;20010;-80
2023/03/17 12:20:10;;;;;;;13.52;2.38;;;16.90;76.60;;;;;;7389902;19;20051;-80
2023/03/17 12:22:45;;;;;;;15.98;2.92;;;16.90;76.80;;;;;;7393227;19;20296;-80
2023/03/17 12:25:23;;;;;;;10.93;2.85;;;16.70;77.00;;;;;;7391028;19;20023;-80
2023/03/17 12:28:15;;;;;;;;;;;;;;;;;;;;;
2023/03/17 12:31:46;;;;;;;15.35;2.90;;;16.70;78.00;;;;;;7391589;19;20030;-81
2023/03/17 13:24:06;;;;;;;;;;;;;;;;;;;;;
2023/03/17 13:27:24;;;;;;;;;;;;;;;;;;;;;
2023/03/17 13:30:06;;;;;;;19.77;3.50;;;17.20;80.20;;;;;;7417837;19;21766;-82
2023/03/17 13:39:27;;;;;;;18.20;4.05;;;17.50;80.30;;;;;;7429327;19;20246;-83
2023/03/17 13:45:12;;;;;;;14.93;4.50;;;17.70;79.90;;;;;;7341185;19;20011;-82
2023/03/17 13:48:16;;;;;;;;;;;;;;;;;;;;;
2023/03/17 17:07:36;;;;;;;65.03;11.52;;;17.10;89.60;;;;;;7301727;19;20038;-79
2023/03/17 17:10:05;;;;;;;;;;;17.00;90.00;;;;;;7393674;19;20369;-80
